Time;durP1;ratioP1;P1;durP2;ratioP2;P2;SDS_P1;SDS_P2;PMS_P1;PMS_P2;Temp;Humidity;BMP_temperature;BMP_pressure;BME280_temperature;BME280_humidity;BME280_pressure;Samples;Min_cycle;Max_cycle;Signal;HPM_P1;HPM_P2
2023/04/15 00:01:07;;;;;;;12.15;6.60;;;6.50;99.90;;;;;;4947460;28;20054;-59
2023/04/15 00:03:33;;;;;;;10.15;6.38;;;6.60;99.90;;;;;;4947409;28;20043;-60
2023/04/15 00:05:59;;;;;;;14.02;7.10;;;6.40;99.90;;;;;;4950751;28;20055;-50
2023/04/15 00:08:24;;;;;;;10.63;6.55;;;6.40;99.90;;;;;;4950468;28;20132;-59
2023/04/15 00:10:50;;;;;;;9.73;6.43;;;6.40;99.90;;;;;;4950426;28;20047;-63
2023/04/15 00:13:16;;;;;;;12.35;7.35;;;6.40;99.90;;;;;;4949924;28;20479;-56
2023/04/15 00:15:42;;;;;;;12.35;6.88;;;6.40;99.90;;;;;;4949853;28;20088;-60
2023/04/15 00:18:07;;;;;;;10.48;6.80;;;6.30;99.90;;;;;;4951120;28;20043;-62
2023/04/15 00:20:34;;;;;;;11.00;7.20;;;6.20;99.90;;;;;;4950654;28;20058;-62
2023/04/15 00:23:01;;;;;;;12.00;6.63;;;6.20;99.90;;;;;;4949916;28;20163;-58
2023/04/15 00:25:27;;;;;;;10.40;7.10;;;6.30;99.90;;;;;;4950502;28;20613;-57
2023/04/15 00:27:53;;;;;;;11.20;6.93;;;6.10;99.90;;;;;;4950309;28;20130;-61
2023/04/15 00:30:19;;;;;;;12.75;8.07;;;6.30;99.90;;;;;;4950531;28;20045;-60
2023/04/15 00:32:45;;;;;;;13.32;7.85;;;6.10;99.90;;;;;;4949911;28;20043;-56
2023/04/15 00:35:11;;;;;;;10.35;7.53;;;6.10;99.90;;;;;;4950925;28;20043;-55
2023/04/15 00:37:37;;;;;;;12.35;7.57;;;6.10;99.90;;;;;;4965143;28;20043;-58
2023/04/15 00:40:05;;;;;;;12.50;7.57;;;6.10;99.90;;;;;;4949486;28;20053;-59
2023/04/15 00:42:31;;;;;;;10.68;7.22;;;6.10;99.90;;;;;;4949663;28;20130;-63
2023/04/15 00:44:56;;;;;;;13.27;7.85;;;6.10;99.90;;;;;;4949962;28;20454;-54
2023/04/15 00:47:22;;;;;;;12.00;7.90;;;6.10;99.90;;;;;;4950060;28;20054;-58
2023/04/15 00:49:48;;;;;;;11.93;7.43;;;6.00;99.90;;;;;;4949965;28;20133;-62
2023/04/15 00:52:13;;;;;;;11.15;7.03;;;6.00;99.90;;;;;;4950481;28;20098;-52
2023/04/15 00:54:39;;;;;;;13.50;7.63;;;5.90;99.90;;;;;;4950307;28;20050;-63
2023/04/15 00:57:05;;;;;;;11.15;8.00;;;6.10;99.90;;;;;;4952603;28;20043;-56
2023/04/15 00:59:32;;;;;;;10.05;7.57;;;5.80;99.90;;;;;;4958006;28;20123;-63
2023/04/15 01:01:58;;;;;;;10.55;8.07;;;5.70;99.90;;;;;;4949800;28;20050;-57
2023/04/15 01:04:24;;;;;;;12.20;7.90;;;5.80;99.90;;;;;;4949609;28;20047;-62
2023/04/15 01:06:50;;;;;;;11.40;8.40;;;5.70;99.90;;;;;;5034482;23;20045;-55
2023/04/15 01:09:17;;;;;;;14.15;8.18;;;6.00;99.90;;;;;;5035188;28;20053;-55
2023/04/15 01:11:43;;;;;;;13.10;8.20;;;5.80;99.90;;;;;;5026321;28;20069;-54
2023/04/15 01:14:09;;;;;;;12.32;8.32;;;5.80;99.90;;;;;;5005528;28;20046;-60
2023/04/15 01:16:38;;;;;;;12.30;8.40;;;5.80;99.90;;;;;;5007981;28;20045;-60
2023/04/15 01:19:07;;;;;;;12.95;8.45;;;5.80;99.90;;;;;;5007909;28;20093;-57
2023/04/15 01:21:36;;;;;;;11.27;8.65;;;5.90;99.90;;;;;;5007902;28;20476;-59
2023/04/15 01:24:07;;;;;;;13.73;8.68;;;5.80;99.90;;;;;;5007825;28;20049;-54
2023/04/15 01:26:33;;;;;;;11.82;8.15;;;5.70;99.90;;;;;;5007725;28;20088;-53
2023/04/15 01:28:59;;;;;;;12.63;8.18;;;5.70;99.90;;;;;;5007009;28;20077;-57
2023/04/15 01:31:24;;;;;;;13.88;8.45;;;5.70;99.90;;;;;;5007512;28;20045;-54
2023/04/15 01:33:50;;;;;;;11.75;8.57;;;5.60;99.90;;;;;;5007886;28;20493;-48
2023/04/15 01:36:16;;;;;;;11.60;8.63;;;5.60;99.90;;;;;;5007549;28;20496;-53
2023/04/15 01:38:42;;;;;;;13.35;8.90;;;5.80;99.90;;;;;;5008392;28;20053;-59
2023/04/15 01:41:07;;;;;;;13.18;8.90;;;5.50;99.90;;;;;;5007625;28;20625;-55
2023/04/15 01:43:36;;;;;;;13.20;9.13;;;5.50;99.90;;;;;;5006402;28;20042;-57
2023/04/15 01:46:02;;;;;;;13.45;9.20;;;5.40;99.90;;;;;;5007526;28;20103;-52
2023/04/15 01:48:27;;;;;;;12.95;9.75;;;5.40;99.90;;;;;;5007965;28;20042;-58
2023/04/15 01:50:56;;;;;;;13.05;9.50;;;5.40;99.90;;;;;;5007374;28;20065;-59
2023/04/15 01:53:22;;;;;;;13.18;9.65;;;5.40;99.90;;;;;;5007769;28;20470;-52
2023/04/15 01:55:47;;;;;;;11.98;9.15;;;5.40;99.90;;;;;;5007224;28;20046;-54
2023/04/15 01:58:13;;;;;;;11.90;9.18;;;5.40;99.90;;;;;;5015688;28;20476;-57
2023/04/15 02:00:39;;;;;;;12.55;8.90;;;5.40;99.90;;;;;;5008830;28;20734;-57
2023/04/15 02:03:05;;;;;;;12.63;8.25;;;5.30;99.90;;;;;;5007064;28;20042;-59
2023/04/15 02:05:31;;;;;;;12.27;8.80;;;5.30;99.90;;;;;;5006777;28;20054;-52
2023/04/15 02:07:57;;;;;;;11.77;8.70;;;5.30;99.90;;;;;;5006874;28;20054;-57
2023/04/15 02:10:22;;;;;;;11.98;8.50;;;5.30;99.90;;;;;;5007437;28;20585;-58
2023/04/15 02:12:48;;;;;;;10.43;8.50;;;5.30;99.90;;;;;;5006964;28;20460;-50
2023/04/15 02:15:14;;;;;;;14.07;9.77;;;5.30;99.90;;;;;;5007292;28;20042;-55
2023/04/15 02:17:44;;;;;;;13.23;10.25;;;5.20;99.90;;;;;;5006448;28;20523;-58
2023/04/15 02:20:10;;;;;;;19.00;11.00;;;5.20;99.90;;;;;;5007879;28;20459;-55
2023/04/15 02:22:36;;;;;;;15.95;12.02;;;5.20;99.90;;;;;;5007464;28;20049;-59
2023/04/15 02:25:02;;;;;;;19.63;12.85;;;5.20;99.90;;;;;;5006916;28;20084;-59
2023/04/15 02:27:28;;;;;;;18.20;13.35;;;5.20;99.90;;;;;;5004640;28;20524;-57
2023/04/15 02:29:53;;;;;;;17.20;14.18;;;5.30;99.90;;;;;;5023949;28;20083;-55
2023/04/15 02:32:22;;;;;;;18.73;14.15;;;5.50;99.90;;;;;;5026041;28;20128;-52
2023/04/15 02:34:47;;;;;;;19.52;14.70;;;5.40;99.90;;;;;;5026382;28;20128;-56
2023/04/15 02:37:13;;;;;;;18.27;14.18;;;5.40;99.90;;;;;;5026375;28;20128;-57
2023/04/15 02:39:39;;;;;;;19.65;14.35;;;5.50;99.90;;;;;;5026467;28;20049;-57
2023/04/15 02:42:04;;;;;;;19.23;14.43;;;5.50;99.90;;;;;;5026336;28;20061;-55
2023/04/15 02:44:31;;;;;;;19.73;15.00;;;5.50;99.90;;;;;;5026509;28;20045;-58
2023/04/15 02:46:57;;;;;;;19.00;14.35;;;5.90;99.90;;;;;;5026851;28;20427;-58
2023/04/15 02:49:24;;;;;;;18.67;14.93;;;5.70;99.90;;;;;;5024595;28;20045;-57
2023/04/15 02:51:50;;;;;;;18.80;14.98;;;5.50;99.90;;;;;;5026507;28;20060;-54
2023/04/15 02:54:17;;;;;;;19.27;15.02;;;5.50;99.90;;;;;;5026778;28;20393;-57
2023/04/15 02:56:43;;;;;;;19.85;14.50;;;6.50;99.90;;;;;;5024077;28;20499;-57
2023/04/15 02:59:08;;;;;;;17.77;14.50;;;5.50;99.90;;;;;;5015685;28;20095;-50
2023/04/15 03:01:34;;;;;;;21.65;16.48;;;5.60;99.90;;;;;;5006194;28;20049;-57
2023/04/15 03:04:00;;;;;;;21.05;16.33;;;5.50;99.90;;;;;;5006044;28;20053;-56
2023/04/15 03:06:25;;;;;;;22.83;16.70;;;5.60;99.90;;;;;;5005560;28;20041;-58
2023/04/15 03:08:51;;;;;;;21.55;16.23;;;5.60;99.90;;;;;;5005683;28;20060;-54
2023/04/15 03:11:18;;;;;;;24.85;17.27;;;5.60;99.90;;;;;;5006902;28;20520;-58
2023/04/15 03:13:43;;;;;;;22.17;16.85;;;5.60;99.90;;;;;;5005603;28;20042;-55
2023/04/15 03:16:09;;;;;;;21.77;16.88;;;6.00;99.90;;;;;;5005700;28;20046;-58
2023/04/15 03:18:35;;;;;;;21.50;17.02;;;5.60;99.90;;;;;;5021070;28;20041;-55
2023/04/15 03:21:01;;;;;;;23.95;17.63;;;5.60;99.90;;;;;;5005262;28;20072;-58
2023/04/15 03:23:27;;;;;;;23.80;17.75;;;5.80;99.90;;;;;;5006009;28;20396;-53
2023/04/15 03:25:55;;;;;;;24.70;18.52;;;5.60;99.90;;;;;;5006403;28;20050;-50
2023/04/15 03:28:21;;;;;;;24.42;18.48;;;5.60;99.90;;;;;;5005042;28;20085;-58
2023/04/15 03:30:47;;;;;;;23.77;18.17;;;5.50;99.90;;;;;;5005253;28;20771;-57
2023/04/15 03:33:12;;;;;;;22.67;18.50;;;5.50;99.90;;;;;;5005733;28;20111;-59
2023/04/15 03:35:38;;;;;;;24.13;18.52;;;6.10;99.90;;;;;;5006087;28;20068;-54
2023/04/15 03:38:04;;;;;;;23.35;18.02;;;5.50;99.90;;;;;;5004712;28;20611;-57
2023/04/15 03:40:30;;;;;;;22.70;18.02;;;5.50;99.90;;;;;;5005285;28;20952;-59
2023/04/15 03:42:55;;;;;;;22.65;17.67;;;5.50;99.90;;;;;;5003108;28;20052;-59
2023/04/15 03:45:21;;;;;;;27.83;19.50;;;5.50;99.90;;;;;;5005609;28;20064;-54
2023/04/15 03:47:47;;;;;;;24.00;17.88;;;5.50;99.90;;;;;;5005952;28;20045;-58
2023/04/15 03:50:12;;;;;;;24.60;19.10;;;5.50;99.90;;;;;;5005694;28;20049;-54
2023/04/15 03:52:38;;;;;;;25.77;19.42;;;5.60;99.90;;;;;;5005556;28;20042;-57
2023/04/15 03:55:04;;;;;;;23.48;18.00;;;5.50;99.90;;;;;;5005320;28;20034;-56
2023/04/15 03:57:30;;;;;;;23.08;18.48;;;5.50;99.90;;;;;;5008579;28;20038;-56
2023/04/15 03:59:55;;;;;;;23.17;17.95;;;6.10;99.90;;;;;;5013991;28;20065;-56
2023/04/15 04:02:21;;;;;;;24.20;18.45;;;5.50;99.90;;;;;;5004271;28;20050;-57
2023/04/15 04:04:47;;;;;;;25.00;18.38;;;5.50;99.90;;;;;;4987655;28;20045;-54
2023/04/15 04:07:17;;;;;;;24.48;18.25;;;5.50;99.90;;;;;;5005218;28;20076;-59
2023/04/15 04:09:43;;;;;;;21.95;17.10;;;5.90;99.90;;;;;;5005161;28;20057;-57
2023/04/15 04:12:08;;;;;;;26.10;16.88;;;5.50;99.90;;;;;;5003939;28;20046;-59
2023/04/15 04:14:34;;;;;;;23.65;16.83;;;5.50;99.90;;;;;;5005412;28;20038;-56
2023/04/15 04:16:59;;;;;;;20.33;15.98;;;5.50;99.90;;;;;;5004879;28;20531;-55
2023/04/15 04:19:25;;;;;;;20.75;16.65;;;5.40;99.90;;;;;;5005729;28;20128;-58
2023/04/15 04:21:51;;;;;;;21.05;16.27;;;5.40;99.90;;;;;;5005491;28;20101;-58
2023/04/15 04:24:17;;;;;;;20.05;15.90;;;5.50;99.90;;;;;;5005299;28;20057;-59
2023/04/15 04:26:42;;;;;;;20.10;15.85;;;5.40;99.90;;;;;;5004747;28;20396;-52
2023/04/15 04:29:08;;;;;;;20.15;16.27;;;5.60;99.90;;;;;;5004622;28;20065;-59
2023/04/15 04:31:34;;;;;;;21.00;16.33;;;5.40;99.90;;;;;;5004686;28;20057;-59
2023/04/15 04:33:59;;;;;;;22.83;15.98;;;5.40;99.90;;;;;;5004354;28;20038;-52
2023/04/15 04:36:25;;;;;;;22.23;15.52;;;5.40;99.90;;;;;;5004380;28;20191;-55
2023/04/15 04:38:51;;;;;;;21.50;15.90;;;5.50;99.90;;;;;;5004841;28;20065;-58
2023/04/15 04:41:17;;;;;;;20.27;14.95;;;5.50;99.90;;;;;;5004821;28;20127;-59
2023/04/15 04:43:42;;;;;;;18.75;15.88;;;5.50;99.90;;;;;;5004303;28;20139;-58
2023/04/15 04:46:09;;;;;;;20.08;15.13;;;5.50;99.90;;;;;;5003989;28;20050;-53
2023/04/15 04:48:35;;;;;;;19.08;15.02;;;5.50;99.90;;;;;;5005208;28;20049;-56
2023/04/15 04:51:01;;;;;;;19.35;15.65;;;5.50;99.90;;;;;;5007120;28;20050;-58
2023/04/15 04:53:27;;;;;;;20.50;16.27;;;5.50;99.90;;;;;;5009143;28;20049;-53
2023/04/15 04:55:52;;;;;;;20.58;15.68;;;5.50;99.90;;;;;;5008914;28;20045;-58
2023/04/15 04:58:18;;;;;;;20.38;15.05;;;5.50;99.90;;;;;;5014648;28;20514;-58
2023/04/15 05:00:44;;;;;;;20.95;15.32;;;5.60;99.90;;;;;;5026123;28;20037;-49
2023/04/15 05:03:09;;;;;;;20.63;14.80;;;5.50;99.90;;;;;;5028021;28;20436;-58
2023/04/15 05:05:38;;;;;;;19.75;15.80;;;5.50;99.90;;;;;;5028047;28;20065;-54
2023/04/15 05:08:04;;;;;;;22.25;15.63;;;5.50;99.90;;;;;;5027566;28;20119;-56
2023/04/15 05:10:30;;;;;;;21.00;15.48;;;5.60;99.90;;;;;;5027429;28;20049;-59
2023/04/15 05:12:56;;;;;;;21.08;16.15;;;5.60;99.90;;;;;;5026355;28;20052;-57
2023/04/15 05:15:22;;;;;;;21.92;15.98;;;5.60;99.90;;;;;;5027956;28;20447;-57
2023/04/15 05:17:47;;;;;;;23.58;16.33;;;5.60;99.90;;;;;;5026955;28;20049;-54
2023/04/15 05:20:13;;;;;;;23.95;16.98;;;5.60;99.90;;;;;;5028000;28;20068;-56
2023/04/15 05:22:39;;;;;;;23.70;16.48;;;6.40;99.90;;;;;;5027846;28;20720;-58
2023/04/15 05:25:05;;;;;;;25.45;17.27;;;5.70;99.90;;;;;;5026127;28;20056;-59
2023/04/15 05:27:30;;;;;;;24.42;17.77;;;5.80;99.90;;;;;;5025902;28;20117;-55
2023/04/15 05:29:56;;;;;;;24.55;16.85;;;6.20;99.90;;;;;;5027769;28;20077;-59
2023/04/15 05:32:22;;;;;;;22.65;17.20;;;5.90;99.90;;;;;;5027584;28;20057;-59
2023/04/15 05:34:47;;;;;;;25.52;17.15;;;6.00;99.90;;;;;;5026305;28;20101;-56
2023/04/15 05:37:13;;;;;;;27.25;18.52;;;6.60;99.90;;;;;;5027172;28;20046;-56
2023/04/15 05:39:38;;;;;;;27.70;17.75;;;6.20;99.90;;;;;;5027683;28;20060;-59
2023/04/15 05:42:04;;;;;;;23.85;17.48;;;6.20;99.90;;;;;;5026270;28;20034;-52
2023/04/15 05:44:30;;;;;;;23.25;17.45;;;6.30;99.90;;;;;;5025410;28;20049;-51
2023/04/15 05:46:56;;;;;;;24.98;17.05;;;6.30;99.90;;;;;;5027686;28;20045;-56
2023/04/15 05:49:22;;;;;;;24.75;15.73;;;6.40;99.90;;;;;;5027782;28;20046;-58
2023/04/15 05:51:48;;;;;;;23.95;16.25;;;6.60;99.90;;;;;;5026621;28;20674;-59
2023/04/15 05:54:14;;;;;;;26.35;15.85;;;6.50;99.90;;;;;;5027472;28;20045;-58
2023/04/15 05:56:40;;;;;;;24.60;16.52;;;6.50;99.90;;;;;;5024658;28;20038;-55
2023/04/15 05:59:06;;;;;;;20.63;14.65;;;6.60;99.90;;;;;;5016790;28;20038;-55
2023/04/15 06:01:33;;;;;;;20.38;14.93;;;6.60;99.90;;;;;;5007035;28;20135;-55
2023/04/15 06:03:59;;;;;;;24.10;15.25;;;6.70;99.90;;;;;;5007656;28;20211;-57
2023/04/15 06:06:26;;;;;;;19.73;14.65;;;6.70;99.90;;;;;;5006836;28;20117;-58
2023/04/15 06:08:52;;;;;;;18.90;14.50;;;6.80;99.90;;;;;;5006149;28;20489;-55
2023/04/15 06:11:20;;;;;;;20.38;14.18;;;6.80;99.90;;;;;;5006666;28;20046;-59
2023/04/15 06:13:45;;;;;;;21.02;14.55;;;6.90;99.90;;;;;;5006538;28;20060;-55
2023/04/15 06:16:11;;;;;;;20.40;14.82;;;6.80;99.90;;;;;;5007322;28;20038;-59
2023/04/15 06:18:37;;;;;;;19.05;14.27;;;7.30;99.90;;;;;;5007092;28;20034;-57
2023/04/15 06:21:03;;;;;;;21.42;14.35;;;7.00;99.90;;;;;;5006855;28;20049;-52
2023/04/15 06:23:28;;;;;;;20.55;13.68;;;6.90;99.90;;;;;;5007543;28;20042;-54
2023/04/15 06:25:54;;;;;;;20.33;13.77;;;7.00;99.90;;;;;;5006328;28;20042;-59
2023/04/15 06:28:20;;;;;;;19.60;14.13;;;6.90;99.90;;;;;;5005620;28;20492;-57
2023/04/15 06:30:46;;;;;;;19.25;12.57;;;6.90;99.90;;;;;;5006244;28;20041;-57
2023/04/15 06:33:12;;;;;;;14.98;10.68;;;7.00;99.90;;;;;;5004159;28;20057;-57
2023/04/15 06:35:38;;;;;;;12.98;9.75;;;7.00;99.90;;;;;;5006216;28;20048;-58
2023/04/15 06:38:04;;;;;;;13.65;10.30;;;7.10;99.90;;;;;;5006087;28;20058;-50
2023/04/15 06:40:30;;;;;;;13.93;11.05;;;7.10;99.90;;;;;;5006020;28;20112;-57
2023/04/15 06:42:55;;;;;;;14.50;10.50;;;7.10;99.90;;;;;;5005374;28;20588;-59
2023/04/15 06:45:21;;;;;;;15.68;10.43;;;7.20;99.90;;;;;;5005930;28;20072;-58
2023/04/15 06:47:47;;;;;;;14.95;10.80;;;7.20;99.90;;;;;;5005474;28;20552;-56
2023/04/15 06:50:13;;;;;;;14.45;10.13;;;7.20;99.90;;;;;;5011823;28;20504;-50
2023/04/15 06:52:39;;;;;;;14.75;10.55;;;7.50;99.90;;;;;;5026535;28;20485;-59
2023/04/15 06:55:06;;;;;;;13.52;10.20;;;7.30;99.90;;;;;;5025886;28;20099;-55
2023/04/15 06:57:32;;;;;;;12.48;9.60;;;7.40;99.90;;;;;;5018729;28;20125;-59
2023/04/15 06:59:57;;;;;;;14.20;10.15;;;7.40;99.90;;;;;;5013797;28;20128;-57
2023/04/15 07:02:23;;;;;;;11.98;9.18;;;7.50;99.90;;;;;;5006808;28;20503;-56
2023/04/15 07:04:49;;;;;;;12.88;10.10;;;7.60;99.90;;;;;;5006298;28;20046;-59
2023/04/15 07:07:16;;;;;;;12.48;9.60;;;7.70;99.90;;;;;;5005423;28;20050;-56
2023/04/15 07:09:42;;;;;;;11.38;9.27;;;7.80;99.90;;;;;;5005953;28;20049;-55
2023/04/15 07:12:08;;;;;;;14.23;10.20;;;7.90;99.90;;;;;;5005517;28;20056;-59
2023/04/15 07:14:33;;;;;;;13.27;10.00;;;8.00;99.90;;;;;;5003871;28;20132;-59
2023/04/15 07:16:59;;;;;;;13.63;9.43;;;8.00;99.90;;;;;;5005994;28;20125;-59
2023/04/15 07:19:25;;;;;;;11.95;9.50;;;8.00;99.90;;;;;;5004520;28;20069;-57
2023/04/15 07:21:51;;;;;;;12.70;10.10;;;8.20;99.90;;;;;;5005443;28;20037;-56
2023/04/15 07:24:18;;;;;;;14.15;10.00;;;8.20;99.90;;;;;;5004797;28;20073;-59
2023/04/15 07:26:44;;;;;;;14.73;10.07;;;8.20;99.90;;;;;;5005315;28;20037;-59
2023/04/15 07:29:10;;;;;;;12.85;9.23;;;8.20;99.90;;;;;;5004217;28;20547;-59
2023/04/15 07:31:35;;;;;;;12.50;8.25;;;8.20;99.90;;;;;;5003966;28;20054;-57
2023/04/15 07:34:02;;;;;;;10.10;7.30;;;8.30;99.90;;;;;;5005789;28;20053;-59
2023/04/15 07:36:28;;;;;;;12.10;7.32;;;8.40;99.90;;;;;;5005578;28;20456;-58
2023/04/15 07:38:54;;;;;;;8.93;6.47;;;8.40;99.90;;;;;;5004192;28;20046;-60
2023/04/15 07:41:20;;;;;;;9.10;6.28;;;8.40;99.90;;;;;;5004995;28;20053;-56
2023/04/15 07:43:47;;;;;;;11.60;6.65;;;8.50;99.90;;;;;;5006013;28;20091;-59
2023/04/15 07:46:13;;;;;;;8.63;6.28;;;8.70;99.90;;;;;;5005347;28;20054;-59
2023/04/15 07:48:39;;;;;;;9.13;6.00;;;9.70;99.90;;;;;;5018602;28;20069;-58
2023/04/15 07:51:05;;;;;;;11.50;6.13;;;8.70;99.90;;;;;;5024753;28;20611;-54
2023/04/15 07:53:31;;;;;;;9.38;5.80;;;8.70;99.90;;;;;;5025838;28;20041;-56
2023/04/15 07:55:57;;;;;;;9.05;6.05;;;8.70;99.90;;;;;;5023515;28;20053;-57
2023/04/15 07:58:24;;;;;;;11.73;7.07;;;8.70;99.90;;;;;;5019048;28;20117;-59
2023/04/15 08:00:50;;;;;;;9.05;6.57;;;8.60;99.90;;;;;;5006570;28;20056;-56
2023/04/15 08:03:16;;;;;;;9.07;6.28;;;8.50;99.90;;;;;;5004905;28;20049;-59
2023/04/15 08:05:41;;;;;;;8.77;5.80;;;8.50;99.90;;;;;;5021537;28;20041;-57
2023/04/15 08:08:07;;;;;;;10.60;6.10;;;8.50;99.90;;;;;;5025447;28;20049;-60
2023/04/15 08:10:33;;;;;;;9.43;5.78;;;8.40;99.90;;;;;;5025354;28;20057;-57
2023/04/15 08:12:59;;;;;;;8.18;4.63;;;8.70;99.90;;;;;;5022744;28;20053;-55
2023/04/15 08:15:26;;;;;;;7.78;5.30;;;8.60;99.90;;;;;;5025006;28;20119;-59
2023/04/15 08:17:51;;;;;;;7.15;4.85;;;8.50;99.90;;;;;;5025524;28;20510;-58
2023/04/15 08:20:17;;;;;;;8.82;4.97;;;8.50;99.90;;;;;;5023734;28;20069;-59
2023/04/15 08:22:43;;;;;;;7.65;4.88;;;8.60;99.90;;;;;;5023880;28;20050;-57
2023/04/15 08:25:09;;;;;;;7.25;4.88;;;8.70;99.90;;;;;;5027398;28;20115;-58
2023/04/15 08:27:35;;;;;;;8.05;4.50;;;8.70;99.90;;;;;;5028480;28;20049;-54
2023/04/15 08:30:01;;;;;;;7.07;4.13;;;8.70;99.90;;;;;;5028871;28;20033;-55
2023/04/15 08:32:26;;;;;;;6.22;4.28;;;8.70;99.90;;;;;;5026557;28;20107;-55
2023/04/15 08:34:52;;;;;;;5.90;3.83;;;8.60;99.90;;;;;;5028903;28;20052;-56
2023/04/15 08:37:18;;;;;;;6.82;4.00;;;8.60;99.90;;;;;;5027964;28;20060;-57
2023/04/15 08:39:45;;;;;;;6.97;4.05;;;8.60;99.90;;;;;;5028642;28;20049;-59
2023/04/15 08:42:30;;;;;;;6.28;3.72;;;8.60;99.90;;;;;;5027010;28;20049;-52
2023/04/15 08:44:56;;;;;;;;;;;8.70;99.90;;;;;;5026502;28;20146;-59
2023/04/15 08:47:26;;;;;;;6.95;3.95;;;8.80;99.90;;;;;;5026921;28;19972;-56
2023/04/15 08:49:54;;;;;;;6.88;4.00;;;8.90;99.90;;;;;;5028410;28;20033;-52
2023/04/15 08:52:20;;;;;;;7.18;3.67;;;8.90;99.90;;;;;;5028441;28;20126;-58
2023/04/15 08:54:47;;;;;;;6.15;4.18;;;9.00;99.90;;;;;;5028585;28;20555;-56
2023/04/15 08:57:13;;;;;;;7.63;3.85;;;9.10;99.90;;;;;;5023402;28;20063;-56
2023/04/15 08:59:40;;;;;;;6.97;3.85;;;9.40;99.90;;;;;;5017319;28;20042;-55
2023/04/15 09:02:07;;;;;;;5.22;3.42;;;9.10;99.90;;;;;;5008705;28;20061;-57
2023/04/15 09:04:32;;;;;;;6.93;3.70;;;9.10;99.90;;;;;;5008437;28;20057;-58
2023/04/15 09:06:58;;;;;;;7.32;3.55;;;9.00;99.90;;;;;;5007944;28;20054;-57
2023/04/15 09:09:24;;;;;;;7.20;3.47;;;9.00;99.90;;;;;;5008374;28;20137;-55
2023/04/15 09:11:50;;;;;;;7.18;3.55;;;8.90;99.90;;;;;;5007822;28;20097;-57
2023/04/15 09:14:16;;;;;;;10.05;3.90;;;8.90;99.90;;;;;;5006714;28;20030;-53
2023/04/15 09:16:58;;;;;;;6.93;3.50;;;8.90;99.90;;;;;;5007486;28;20131;-57
2023/04/15 09:19:24;;;;;;;9.43;3.65;;;8.90;99.90;;;;;;5007647;28;20045;-53
2023/04/15 09:21:52;;;;;;;6.90;3.17;;;8.90;99.90;;;;;;5007831;28;20124;-56
2023/04/15 09:24:18;;;;;;;7.85;3.45;;;8.90;99.90;;;;;;5007997;28;20041;-52
2023/04/15 09:26:44;;;;;;;7.53;3.60;;;9.00;99.90;;;;;;5007157;28;20128;-57
2023/04/15 09:29:13;;;;;;;9.15;3.40;;;9.00;99.90;;;;;;5008119;28;20045;-51
2023/04/15 09:31:40;;;;;;;7.53;3.13;;;9.10;99.90;;;;;;5006686;28;20050;-58
2023/04/15 09:34:06;;;;;;;10.05;3.10;;;9.20;99.90;;;;;;5007877;28;20049;-55
2023/04/15 09:36:57;;;;;;;5.20;2.88;;;9.10;99.90;;;;;;5005396;28;20053;-54
2023/04/15 09:39:23;;;;;;;6.50;2.72;;;9.10;99.90;;;;;;5005105;28;20123;-56
2023/04/15 09:42:07;;;;;;;6.60;3.35;;;9.10;99.90;;;;;;5006387;28;20492;-56
2023/04/15 09:44:33;;;;;;;6.28;2.83;;;9.20;99.90;;;;;;5007282;28;20096;-55
2023/04/15 09:46:58;;;;;;;8.02;3.30;;;9.20;99.90;;;;;;5007742;28;20050;-51
2023/04/15 09:49:24;;;;;;;7.85;3.58;;;9.20;99.90;;;;;;5007480;28;20038;-58
2023/04/15 09:51:49;;;;;;;7.80;3.10;;;9.20;99.90;;;;;;5007449;28;20049;-57
2023/04/15 09:54:20;;;;;;;6.30;3.15;;;9.20;99.90;;;;;;5007252;28;20034;-56
2023/04/15 09:56:47;;;;;;;6.55;3.30;;;9.20;99.90;;;;;;5008059;28;20624;-56
2023/04/15 09:59:13;;;;;;;9.07;3.63;;;9.20;99.90;;;;;;5017904;28;20046;-52
2023/04/15 10:01:40;;;;;;;8.57;3.70;;;9.20;99.90;;;;;;5007646;28;20060;-59
2023/04/15 10:04:07;;;;;;;5.82;2.90;;;9.10;99.90;;;;;;5007588;28;20118;-58
2023/04/15 10:06:34;;;;;;;6.45;3.40;;;9.10;99.90;;;;;;5006264;28;20144;-58
2023/04/15 10:09:00;;;;;;;7.13;3.30;;;9.20;99.90;;;;;;5007894;28;20037;-56
2023/04/15 10:11:30;;;;;;;7.80;3.05;;;9.20;99.90;;;;;;5025554;28;20049;-54
2023/04/15 10:13:57;;;;;;;5.97;2.88;;;9.20;99.90;;;;;;5025912;28;20081;-57
2023/04/15 10:16:27;;;;;;;6.75;3.20;;;9.20;99.90;;;;;;5007369;28;20125;-54
2023/04/15 10:18:57;;;;;;;6.18;2.80;;;9.20;99.90;;;;;;5006933;28;20088;-54
2023/04/15 10:21:23;;;;;;;7.60;2.80;;;9.20;99.90;;;;;;5007439;28;20053;-58
2023/04/15 10:23:50;;;;;;;6.38;3.03;;;9.20;99.90;;;;;;5025828;28;20392;-56
2023/04/15 10:26:16;;;;;;;9.18;3.33;;;9.40;99.90;;;;;;5025373;28;20041;-52
2023/04/15 10:28:48;;;;;;;5.50;3.10;;;9.20;99.90;;;;;;5006228;28;20044;-58
2023/04/15 10:31:15;;;;;;;6.88;3.42;;;9.30;99.90;;;;;;5006281;28;20054;-55
2023/04/15 10:33:43;;;;;;;4.78;3.05;;;9.30;99.90;;;;;;5021529;28;20049;-57
2023/04/15 10:36:09;;;;;;;7.22;3.00;;;9.30;99.90;;;;;;5025841;28;20049;-51
2023/04/15 10:38:36;;;;;;;6.40;2.72;;;9.40;99.90;;;;;;5026173;28;20488;-58
2023/04/15 10:41:21;;;;;;;7.95;3.03;;;9.50;99.90;;;;;;5025077;28;20092;-52
2023/04/15 10:43:56;;;;;;;8.85;3.10;;;9.50;99.90;;;;;;5024933;28;20045;-53
2023/04/15 10:46:36;;;;;;;6.30;2.80;;;9.50;99.90;;;;;;5024277;28;20081;-54
2023/04/15 10:49:23;;;;;;;5.90;2.83;;;9.30;99.90;;;;;;5024210;28;20049;-54
2023/04/15 10:51:56;;;;;;;4.38;2.60;;;9.30;99.90;;;;;;5004435;28;20057;-57
2023/04/15 10:54:25;;;;;;;5.78;2.70;;;9.30;99.90;;;;;;5004278;28;20100;-58
2023/04/15 10:57:06;;;;;;;6.43;2.65;;;9.30;99.90;;;;;;5007060;28;20041;-56
2023/04/15 10:59:35;;;;;;;7.85;2.90;;;9.30;99.90;;;;;;5021605;28;20324;-58
2023/04/15 11:02:06;;;;;;;5.82;2.70;;;9.30;99.90;;;;;;5025753;28;20053;-58
2023/04/15 11:04:54;;;;;;;6.00;3.00;;;9.20;99.90;;;;;;5026799;28;20057;-58
2023/04/15 11:07:40;;;;;;;5.88;3.00;;;9.20;99.90;;;;;;5025940;28;20056;-58
2023/04/15 11:10:19;;;;;;;11.50;3.13;;;9.20;99.90;;;;;;5025401;28;20038;-56
2023/04/15 11:12:50;;;;;;;10.48;3.25;;;9.10;99.90;;;;;;5025794;28;20110;-57
2023/04/15 11:15:31;;;;;;;8.70;3.33;;;9.60;99.90;;;;;;5026110;28;20049;-54
2023/04/15 11:18:16;;;;;;;8.18;2.90;;;9.10;99.90;;;;;;5025490;28;20092;-55
2023/04/15 11:21:02;;;;;;;5.38;2.80;;;9.10;99.90;;;;;;5025498;28;20415;-56
2023/04/15 11:23:40;;;;;;;8.18;3.13;;;9.10;99.90;;;;;;5025981;28;20424;-58
2023/04/15 11:26:10;;;;;;;7.85;2.33;;;9.10;99.90;;;;;;5023416;28;20064;-54
2023/04/15 11:28:39;;;;;;;7.47;2.55;;;9.10;99.90;;;;;;5025390;28;20060;-55
2023/04/15 11:31:07;;;;;;;6.03;2.40;;;9.10;99.90;;;;;;5040904;28;20463;-59
2023/04/15 11:33:32;;;;;;;6.45;2.33;;;9.10;99.90;;;;;;5024494;28;20049;-56
2023/04/15 11:35:58;;;;;;;8.65;2.50;;;9.10;99.90;;;;;;5025230;28;20059;-52
2023/04/15 11:38:24;;;;;;;8.88;2.95;;;9.10;99.90;;;;;;5025894;28;20053;-58
2023/04/15 11:40:51;;;;;;;6.72;2.53;;;9.10;99.90;;;;;;5024524;28;20114;-52
2023/04/15 11:43:19;;;;;;;9.23;2.85;;;9.20;99.90;;;;;;5025394;28;20099;-60
2023/04/15 11:46:00;;;;;;;9.38;2.65;;;9.10;99.90;;;;;;5024746;28;20046;-59
2023/04/15 11:48:26;;;;;;;8.60;2.97;;;9.10;99.90;;;;;;5039895;28;20044;-55
2023/04/15 11:50:58;;;;;;;6.30;2.42;;;9.10;99.90;;;;;;5024038;28;20060;-56
2023/04/15 11:53:34;;;;;;;12.70;3.10;;;9.20;99.90;;;;;;5025000;28;20453;-52
2023/04/15 11:56:00;;;;;;;6.35;2.60;;;9.20;99.90;;;;;;5040152;28;20085;-61
2023/04/15 11:58:26;;;;;;;8.73;2.47;;;9.20;99.90;;;;;;5019515;28;20091;-55
2023/04/15 12:00:59;;;;;;;10.82;2.75;;;9.20;99.90;;;;;;5007381;28;20117;-59
2023/04/15 12:03:39;;;;;;;9.23;2.42;;;9.20;99.90;;;;;;5008809;28;20052;-60
2023/04/15 12:06:24;;;;;;;10.02;2.80;;;9.10;99.90;;;;;;5008162;28;20080;-59
2023/04/15 12:09:17;;;;;;;7.43;2.42;;;9.00;99.90;;;;;;5008999;28;20110;-61
2023/04/15 12:11:44;;;;;;;11.43;2.65;;;9.00;99.90;;;;;;5007107;28;20085;-60
2023/04/15 12:14:25;;;;;;;9.05;2.25;;;9.00;99.90;;;;;;5008774;28;20038;-57
2023/04/15 12:17:03;;;;;;;8.77;2.65;;;8.90;99.90;;;;;;5008979;28;20042;-55
2023/04/15 12:19:54;;;;;;;9.75;2.70;;;8.90;99.90;;;;;;5009386;28;20109;-51
2023/04/15 12:22:21;;;;;;;9.25;2.63;;;8.90;99.90;;;;;;5008874;28;20053;-60
2023/04/15 12:24:47;;;;;;;9.57;2.40;;;8.90;99.90;;;;;;5008712;28;20072;-55
2023/04/15 12:27:15;;;;;;;9.68;2.22;;;9.00;99.90;;;;;;5008349;28;20046;-52
2023/04/15 12:29:44;;;;;;;10.65;2.60;;;8.90;99.90;;;;;;5008614;28;20092;-61
2023/04/15 12:32:13;;;;;;;10.50;2.28;;;9.00;99.90;;;;;;5009041;28;20103;-58
2023/04/15 12:34:48;;;;;;;7.45;2.47;;;8.90;99.90;;;;;;5008725;28;20053;-57
2023/04/15 12:37:14;;;;;;;13.93;2.58;;;8.90;99.90;;;;;;5008830;28;20056;-61
2023/04/15 12:39:44;;;;;;;10.23;2.72;;;8.90;99.90;;;;;;5008552;28;20046;-53
2023/04/15 12:42:11;;;;;;;9.77;2.67;;;8.80;99.90;;;;;;5007547;28;20397;-58
2023/04/15 12:44:38;;;;;;;10.02;2.70;;;8.80;99.90;;;;;;5006791;28;20099;-56
2023/04/15 12:47:04;;;;;;;12.00;3.38;;;8.90;99.90;;;;;;5008767;28;20048;-58